Pagrindinis puslapis
METAR-TAF:

METAR-TAF

Oro uostai :

Kittilä, Suomija

platuma: 67-42N, ilguma: 024-51E, Aukštis: 196 m

Dabartinis oras

Ataskaita buvo paskelbta 1 valandą ir 15 minutes, ne 01:50 UTC
Vėjas 3 kt nuo kintamojo kryptimis
Temperatūra -22°C
Drėgmė 84%
Slėgis 1010 hPa
Matomumas 10 km arba daugiau
nėra debesų žemiau 1500 m ir nėra kamuolinių lietaus debesų

METAR: EFKT 270150Z AUTO VRB03KT CAVOK M22/M24 Q1010

Laikas: 06:05 (03:05 UTC)

Prognozė

Ataskaita buvo paskelbta 6 valandos ir 40 minutes, ne 20:25 UTC
Prognozė galioja nuo 26 metu 21 UTC su 26 metu 24 UTC
Vėjas 3 kt iš Šiaurės Vakarų
Matomumas 10 km arba daugiau
nėra debesų žemiau 1500 m ir nėra kamuolinių lietaus debesų

TAF: EFKT 262025Z 2621/2624 32003KT CAVOK

Orai ataskaitas ir orų prognozės (METAR, TAF).

turimą stotys yra geltonos ir raudonos taškus žemėlapyje.

Perkelti pele per norėdami pamatyti stoties vardą.

Tada spustelėkite, norėdami matyti oro stebėjimo ir prognozės.

Norėdami pakeisti žemėlapį: spustelėkite ant žalios mygtukų su juodo kryžiaus žemyn,; žalią mygtuką su brūkšneliu, jei norite nutolinti; arba žalių rodyklių gretimoms žemėlapius.


METAR-TAF: